sensor_id;sensor_type;location;lat;lon;timestamp;P1;durP1;ratioP1;P2;durP2;ratioP2
24901;SDS011;31328;51.402;0.016;2023-05-03T00:01:15;9.03;;;3.37;;
24901;SDS011;31328;51.402;0.016;2023-05-03T00:03:42;7.20;;;3.40;;
24901;SDS011;31328;51.402;0.016;2023-05-03T00:06:11;8.40;;;3.63;;
24901;SDS011;31328;51.402;0.016;2023-05-03T00:08:38;8.90;;;4.03;;
24901;SDS011;31328;51.402;0.016;2023-05-03T00:11:05;7.67;;;4.00;;
24901;SDS011;31328;51.402;0.016;2023-05-03T00:13:32;6.37;;;3.67;;
24901;SDS011;31328;51.402;0.016;2023-05-03T00:15:58;8.27;;;3.27;;
24901;SDS011;31328;51.402;0.016;2023-05-03T00:18:24;12.73;;;4.10;;
24901;SDS011;31328;51.402;0.016;2023-05-03T00:20:51;9.83;;;4.00;;
24901;SDS011;31328;51.402;0.016;2023-05-03T00:23:19;5.67;;;3.53;;
24901;SDS011;31328;51.402;0.016;2023-05-03T00:25:46;8.90;;;3.97;;
24901;SDS011;31328;51.402;0.016;2023-05-03T00:28:16;6.53;;;3.57;;
24901;SDS011;31328;51.402;0.016;2023-05-03T00:30:42;9.47;;;3.60;;
24901;SDS011;31328;51.402;0.016;2023-05-03T00:33:09;8.37;;;4.27;;
24901;SDS011;31328;51.402;0.016;2023-05-03T00:35:35;9.27;;;4.20;;
24901;SDS011;31328;51.402;0.016;2023-05-03T00:38:01;9.70;;;4.27;;
24901;SDS011;31328;51.402;0.016;2023-05-03T00:40:28;8.43;;;4.00;;
24901;SDS011;31328;51.402;0.016;2023-05-03T00:42:54;6.07;;;3.50;;
24901;SDS011;31328;51.402;0.016;2023-05-03T00:45:21;9.43;;;4.00;;
24901;SDS011;31328;51.402;0.016;2023-05-03T00:47:47;7.17;;;3.97;;
24901;SDS011;31328;51.402;0.016;2023-05-03T00:50:13;11.07;;;4.13;;
24901;SDS011;31328;51.402;0.016;2023-05-03T00:52:40;6.40;;;3.60;;
24901;SDS011;31328;51.402;0.016;2023-05-03T00:55:07;8.07;;;3.87;;
24901;SDS011;31328;51.402;0.016;2023-05-03T00:57:35;7.40;;;3.80;;
24901;SDS011;31328;51.402;0.016;2023-05-03T01:00:01;7.93;;;3.93;;
24901;SDS011;31328;51.402;0.016;2023-05-03T01:02:28;7.33;;;3.77;;
24901;SDS011;31328;51.402;0.016;2023-05-03T01:04:54;10.97;;;3.60;;
24901;SDS011;31328;51.402;0.016;2023-05-03T01:18:41;11.50;;;4.27;;
24901;SDS011;31328;51.402;0.016;2023-05-03T01:21:15;9.77;;;4.13;;
24901;SDS011;31328;51.402;0.016;2023-05-03T01:23:59;7.83;;;4.00;;
24901;SDS011;31328;51.402;0.016;2023-05-03T01:26:32;6.30;;;4.00;;
24901;SDS011;31328;51.402;0.016;2023-05-03T01:28:58;7.77;;;4.50;;
24901;SDS011;31328;51.402;0.016;2023-05-03T01:31:27;7.40;;;4.13;;
24901;SDS011;31328;51.402;0.016;2023-05-03T01:36:42;9.47;;;4.37;;
24901;SDS011;31328;51.402;0.016;2023-05-03T01:41:45;11.00;;;3.47;;
24901;SDS011;31328;51.402;0.016;2023-05-03T01:44:18;5.07;;;3.67;;
24901;SDS011;31328;51.402;0.016;2023-05-03T01:46:47;7.57;;;4.03;;
24901;SDS011;31328;51.402;0.016;2023-05-03T01:49:14;6.57;;;4.00;;
24901;SDS011;31328;51.402;0.016;2023-05-03T01:51:41;7.93;;;3.57;;
24901;SDS011;31328;51.402;0.016;2023-05-03T01:54:07;6.27;;;3.60;;
24901;SDS011;31328;51.402;0.016;2023-05-03T01:56:34;6.33;;;3.47;;
24901;SDS011;31328;51.402;0.016;2023-05-03T01:59:02;8.90;;;3.90;;
24901;SDS011;31328;51.402;0.016;2023-05-03T02:01:28;10.90;;;4.37;;
24901;SDS011;31328;51.402;0.016;2023-05-03T02:03:55;8.77;;;3.50;;
24901;SDS011;31328;51.402;0.016;2023-05-03T02:06:22;7.17;;;4.07;;
24901;SDS011;31328;51.402;0.016;2023-05-03T02:08:52;9.80;;;4.10;;
24901;SDS011;31328;51.402;0.016;2023-05-03T02:11:19;7.27;;;4.17;;
24901;SDS011;31328;51.402;0.016;2023-05-03T02:13:47;8.00;;;3.60;;
24901;SDS011;31328;51.402;0.016;2023-05-03T02:16:18;10.17;;;4.67;;
24901;SDS011;31328;51.402;0.016;2023-05-03T02:18:45;7.73;;;4.00;;
24901;SDS011;31328;51.402;0.016;2023-05-03T02:21:13;12.37;;;4.60;;
24901;SDS011;31328;51.402;0.016;2023-05-03T02:23:39;6.87;;;4.33;;
24901;SDS011;31328;51.402;0.016;2023-05-03T02:26:06;8.83;;;3.70;;
24901;SDS011;31328;51.402;0.016;2023-05-03T02:28:32;8.10;;;3.70;;
24901;SDS011;31328;51.402;0.016;2023-05-03T02:30:59;6.63;;;3.97;;
24901;SDS011;31328;51.402;0.016;2023-05-03T02:33:25;9.80;;;3.93;;
24901;SDS011;31328;51.402;0.016;2023-05-03T02:35:51;9.03;;;4.10;;
24901;SDS011;31328;51.402;0.016;2023-05-03T02:38:18;6.50;;;3.83;;
24901;SDS011;31328;51.402;0.016;2023-05-03T02:40:44;8.20;;;4.27;;
24901;SDS011;31328;51.402;0.016;2023-05-03T02:43:11;7.20;;;3.83;;
24901;SDS011;31328;51.402;0.016;2023-05-03T02:45:37;8.90;;;4.30;;
24901;SDS011;31328;51.402;0.016;2023-05-03T02:48:03;9.47;;;3.83;;
24901;SDS011;31328;51.402;0.016;2023-05-03T02:50:30;8.23;;;3.87;;
24901;SDS011;31328;51.402;0.016;2023-05-03T02:52:57;7.97;;;4.03;;
24901;SDS011;31328;51.402;0.016;2023-05-03T02:55:23;8.27;;;3.60;;
24901;SDS011;31328;51.402;0.016;2023-05-03T02:57:49;5.97;;;3.60;;
24901;SDS011;31328;51.402;0.016;2023-05-03T03:00:18;8.53;;;4.43;;
24901;SDS011;31328;51.402;0.016;2023-05-03T03:02:45;8.90;;;4.03;;
24901;SDS011;31328;51.402;0.016;2023-05-03T03:05:11;10.70;;;4.33;;
24901;SDS011;31328;51.402;0.016;2023-05-03T03:07:39;7.23;;;4.30;;
24901;SDS011;31328;51.402;0.016;2023-05-03T03:10:06;9.20;;;4.00;;
24901;SDS011;31328;51.402;0.016;2023-05-03T03:12:34;6.63;;;3.63;;
24901;SDS011;31328;51.402;0.016;2023-05-03T03:15:03;7.30;;;3.80;;
24901;SDS011;31328;51.402;0.016;2023-05-03T03:17:32;10.37;;;4.50;;
24901;SDS011;31328;51.402;0.016;2023-05-03T03:19:58;8.33;;;4.23;;
24901;SDS011;31328;51.402;0.016;2023-05-03T03:22:26;8.40;;;4.30;;
24901;SDS011;31328;51.402;0.016;2023-05-03T03:24:53;9.40;;;4.40;;
24901;SDS011;31328;51.402;0.016;2023-05-03T03:27:20;13.50;;;4.93;;
24901;SDS011;31328;51.402;0.016;2023-05-03T03:29:47;8.43;;;4.63;;
24901;SDS011;31328;51.402;0.016;2023-05-03T03:32:14;9.27;;;3.90;;
24901;SDS011;31328;51.402;0.016;2023-05-03T03:34:40;8.57;;;4.63;;
24901;SDS011;31328;51.402;0.016;2023-05-03T03:37:06;8.67;;;4.53;;
24901;SDS011;31328;51.402;0.016;2023-05-03T03:39:34;8.80;;;5.53;;
24901;SDS011;31328;51.402;0.016;2023-05-03T03:42:01;6.63;;;4.17;;
24901;SDS011;31328;51.402;0.016;2023-05-03T03:44:29;10.13;;;4.47;;
24901;SDS011;31328;51.402;0.016;2023-05-03T03:46:56;8.80;;;5.00;;
24901;SDS011;31328;51.402;0.016;2023-05-03T03:49:22;10.03;;;4.60;;
24901;SDS011;31328;51.402;0.016;2023-05-03T03:51:48;10.17;;;4.40;;
24901;SDS011;31328;51.402;0.016;2023-05-03T03:54:14;9.50;;;5.00;;
24901;SDS011;31328;51.402;0.016;2023-05-03T03:56:46;10.57;;;5.33;;
24901;SDS011;31328;51.402;0.016;2023-05-03T03:59:12;9.23;;;4.70;;
24901;SDS011;31328;51.402;0.016;2023-05-03T04:01:39;8.13;;;4.63;;
24901;SDS011;31328;51.402;0.016;2023-05-03T04:04:06;9.70;;;4.67;;
24901;SDS011;31328;51.402;0.016;2023-05-03T04:06:33;9.07;;;4.63;;
24901;SDS011;31328;51.402;0.016;2023-05-03T04:09:04;11.93;;;4.93;;
24901;SDS011;31328;51.402;0.016;2023-05-03T04:11:33;10.10;;;5.03;;
24901;SDS011;31328;51.402;0.016;2023-05-03T04:14:01;7.27;;;4.37;;
24901;SDS011;31328;51.402;0.016;2023-05-03T04:16:30;9.43;;;5.03;;
24901;SDS011;31328;51.402;0.016;2023-05-03T04:18:59;13.50;;;5.60;;
24901;SDS011;31328;51.402;0.016;2023-05-03T04:21:27;9.50;;;5.47;;
24901;SDS011;31328;51.402;0.016;2023-05-03T04:23:54;10.10;;;4.47;;
24901;SDS011;31328;51.402;0.016;2023-05-03T04:26:20;6.47;;;4.33;;
24901;SDS011;31328;51.402;0.016;2023-05-03T04:28:50;10.23;;;5.73;;
24901;SDS011;31328;51.402;0.016;2023-05-03T04:31:18;12.73;;;6.17;;
24901;SDS011;31328;51.402;0.016;2023-05-03T04:33:50;12.63;;;5.27;;
24901;SDS011;31328;51.402;0.016;2023-05-03T04:36:18;12.40;;;6.20;;
24901;SDS011;31328;51.402;0.016;2023-05-03T04:38:46;13.33;;;5.80;;
24901;SDS011;31328;51.402;0.016;2023-05-03T04:41:13;12.10;;;5.17;;
24901;SDS011;31328;51.402;0.016;2023-05-03T04:43:39;13.87;;;5.57;;
24901;SDS011;31328;51.402;0.016;2023-05-03T04:46:06;11.63;;;5.20;;
24901;SDS011;31328;51.402;0.016;2023-05-03T04:48:32;11.37;;;5.20;;
24901;SDS011;31328;51.402;0.016;2023-05-03T04:51:02;13.73;;;5.77;;
24901;SDS011;31328;51.402;0.016;2023-05-03T04:53:29;10.33;;;5.20;;
24901;SDS011;31328;51.402;0.016;2023-05-03T04:56:07;11.47;;;6.10;;
24901;SDS011;31328;51.402;0.016;2023-05-03T04:58:37;12.47;;;5.33;;
24901;SDS011;31328;51.402;0.016;2023-05-03T05:01:04;8.53;;;5.30;;
24901;SDS011;31328;51.402;0.016;2023-05-03T05:03:31;10.63;;;5.20;;
24901;SDS011;31328;51.402;0.016;2023-05-03T05:06:01;11.13;;;6.70;;
24901;SDS011;31328;51.402;0.016;2023-05-03T05:08:29;9.70;;;4.90;;
24901;SDS011;31328;51.402;0.016;2023-05-03T05:10:56;11.97;;;5.47;;
24901;SDS011;31328;51.402;0.016;2023-05-03T05:13:28;9.07;;;4.70;;
24901;SDS011;31328;51.402;0.016;2023-05-03T05:15:55;10.10;;;5.03;;
24901;SDS011;31328;51.402;0.016;2023-05-03T05:18:22;7.07;;;4.77;;
24901;SDS011;31328;51.402;0.016;2023-05-03T05:20:49;9.33;;;5.83;;
24901;SDS011;31328;51.402;0.016;2023-05-03T05:23:18;12.07;;;5.83;;
24901;SDS011;31328;51.402;0.016;2023-05-03T05:25:46;12.63;;;5.00;;
24901;SDS011;31328;51.402;0.016;2023-05-03T05:28:12;10.23;;;5.40;;
24901;SDS011;31328;51.402;0.016;2023-05-03T05:30:39;11.27;;;5.33;;
24901;SDS011;31328;51.402;0.016;2023-05-03T05:33:06;13.27;;;5.63;;
24901;SDS011;31328;51.402;0.016;2023-05-03T05:35:33;11.73;;;5.70;;
24901;SDS011;31328;51.402;0.016;2023-05-03T05:38:00;11.63;;;5.60;;
24901;SDS011;31328;51.402;0.016;2023-05-03T05:40:27;15.07;;;5.87;;
24901;SDS011;31328;51.402;0.016;2023-05-03T05:42:59;12.67;;;5.80;;
24901;SDS011;31328;51.402;0.016;2023-05-03T05:45:27;15.77;;;6.93;;
24901;SDS011;31328;51.402;0.016;2023-05-03T05:47:56;12.93;;;6.20;;
24901;SDS011;31328;51.402;0.016;2023-05-03T05:50:22;12.90;;;6.47;;
24901;SDS011;31328;51.402;0.016;2023-05-03T05:52:55;12.23;;;6.10;;
24901;SDS011;31328;51.402;0.016;2023-05-03T05:55:24;12.87;;;5.93;;
24901;SDS011;31328;51.402;0.016;2023-05-03T05:57:51;15.13;;;5.97;;
24901;SDS011;31328;51.402;0.016;2023-05-03T06:00:20;14.77;;;6.40;;
24901;SDS011;31328;51.402;0.016;2023-05-03T06:02:47;10.70;;;5.17;;
24901;SDS011;31328;51.402;0.016;2023-05-03T06:05:17;12.70;;;5.80;;
24901;SDS011;31328;51.402;0.016;2023-05-03T06:07:43;10.90;;;5.60;;
24901;SDS011;31328;51.402;0.016;2023-05-03T06:10:10;13.60;;;5.30;;
24901;SDS011;31328;51.402;0.016;2023-05-03T06:12:38;17.13;;;6.07;;
24901;SDS011;31328;51.402;0.016;2023-05-03T06:15:11;13.10;;;6.13;;
24901;SDS011;31328;51.402;0.016;2023-05-03T06:17:38;10.27;;;5.47;;
24901;SDS011;31328;51.402;0.016;2023-05-03T06:20:05;12.60;;;6.20;;
24901;SDS011;31328;51.402;0.016;2023-05-03T06:22:37;10.97;;;5.67;;
24901;SDS011;31328;51.402;0.016;2023-05-03T06:25:04;10.43;;;6.00;;
24901;SDS011;31328;51.402;0.016;2023-05-03T06:27:32;17.33;;;7.40;;
24901;SDS011;31328;51.402;0.016;2023-05-03T06:29:59;15.37;;;7.27;;
24901;SDS011;31328;51.402;0.016;2023-05-03T06:32:26;13.93;;;7.20;;
24901;SDS011;31328;51.402;0.016;2023-05-03T06:34:53;15.07;;;7.70;;
24901;SDS011;31328;51.402;0.016;2023-05-03T06:37:19;15.43;;;7.00;;
24901;SDS011;31328;51.402;0.016;2023-05-03T06:39:45;16.93;;;7.50;;
24901;SDS011;31328;51.402;0.016;2023-05-03T06:42:12;15.13;;;6.87;;
24901;SDS011;31328;51.402;0.016;2023-05-03T06:44:41;12.87;;;5.87;;
24901;SDS011;31328;51.402;0.016;2023-05-03T06:47:07;14.80;;;6.43;;
24901;SDS011;31328;51.402;0.016;2023-05-03T06:49:34;15.77;;;7.07;;
24901;SDS011;31328;51.402;0.016;2023-05-03T06:52:00;11.47;;;6.50;;
24901;SDS011;31328;51.402;0.016;2023-05-03T06:54:26;12.47;;;6.60;;
24901;SDS011;31328;51.402;0.016;2023-05-03T06:56:53;10.57;;;6.50;;
24901;SDS011;31328;51.402;0.016;2023-05-03T06:59:19;13.03;;;6.60;;
24901;SDS011;31328;51.402;0.016;2023-05-03T07:01:46;12.17;;;6.80;;
24901;SDS011;31328;51.402;0.016;2023-05-03T07:04:12;17.47;;;7.63;;
24901;SDS011;31328;51.402;0.016;2023-05-03T07:06:39;11.53;;;7.13;;
24901;SDS011;31328;51.402;0.016;2023-05-03T07:09:05;12.13;;;6.27;;
24901;SDS011;31328;51.402;0.016;2023-05-03T07:11:32;14.63;;;6.80;;
24901;SDS011;31328;51.402;0.016;2023-05-03T07:14:02;15.90;;;6.90;;
24901;SDS011;31328;51.402;0.016;2023-05-03T07:16:28;12.83;;;7.00;;
24901;SDS011;31328;51.402;0.016;2023-05-03T07:18:54;11.63;;;6.20;;
24901;SDS011;31328;51.402;0.016;2023-05-03T07:21:21;15.63;;;6.50;;
24901;SDS011;31328;51.402;0.016;2023-05-03T07:23:47;14.87;;;5.70;;
24901;SDS011;31328;51.402;0.016;2023-05-03T07:26:13;13.40;;;6.37;;
24901;SDS011;31328;51.402;0.016;2023-05-03T07:28:40;13.67;;;6.63;;
24901;SDS011;31328;51.402;0.016;2023-05-03T07:31:06;12.10;;;6.90;;
24901;SDS011;31328;51.402;0.016;2023-05-03T07:33:33;13.10;;;6.80;;
24901;SDS011;31328;51.402;0.016;2023-05-03T07:36:02;13.37;;;6.67;;
24901;SDS011;31328;51.402;0.016;2023-05-03T07:38:29;9.27;;;5.67;;
24901;SDS011;31328;51.402;0.016;2023-05-03T07:40:56;10.90;;;5.67;;
24901;SDS011;31328;51.402;0.016;2023-05-03T07:43:23;10.40;;;5.73;;
24901;SDS011;31328;51.402;0.016;2023-05-03T07:45:49;10.97;;;5.57;;
24901;SDS011;31328;51.402;0.016;2023-05-03T07:48:16;10.77;;;5.47;;
24901;SDS011;31328;51.402;0.016;2023-05-03T07:50:42;14.10;;;6.20;;
24901;SDS011;31328;51.402;0.016;2023-05-03T07:53:10;11.17;;;5.53;;
24901;SDS011;31328;51.402;0.016;2023-05-03T07:55:37;9.17;;;5.67;;
24901;SDS011;31328;51.402;0.016;2023-05-03T07:58:03;10.57;;;5.53;;
24901;SDS011;31328;51.402;0.016;2023-05-03T08:00:30;13.53;;;5.80;;
24901;SDS011;31328;51.402;0.016;2023-05-03T08:02:56;12.40;;;6.90;;
24901;SDS011;31328;51.402;0.016;2023-05-03T08:05:23;8.33;;;5.07;;
24901;SDS011;31328;51.402;0.016;2023-05-03T08:07:49;11.37;;;5.90;;
24901;SDS011;31328;51.402;0.016;2023-05-03T08:10:15;12.93;;;6.27;;
24901;SDS011;31328;51.402;0.016;2023-05-03T08:12:42;11.13;;;5.37;;
24901;SDS011;31328;51.402;0.016;2023-05-03T08:15:10;10.63;;;5.63;;
24901;SDS011;31328;51.402;0.016;2023-05-03T08:17:44;11.07;;;5.93;;
24901;SDS011;31328;51.402;0.016;2023-05-03T08:20:11;11.85;;;6.45;;
24901;SDS011;31328;51.402;0.016;2023-05-03T08:22:38;11.00;;;6.03;;
24901;SDS011;31328;51.402;0.016;2023-05-03T08:25:05;10.73;;;5.97;;
24901;SDS011;31328;51.402;0.016;2023-05-03T08:27:32;12.68;;;6.50;;
24901;SDS011;31328;51.402;0.016;2023-05-03T08:29:59;14.10;;;6.07;;
24901;SDS011;31328;51.402;0.016;2023-05-03T08:32:26;9.70;;;6.28;;
24901;SDS011;31328;51.402;0.016;2023-05-03T08:34:53;12.60;;;6.63;;
24901;SDS011;31328;51.402;0.016;2023-05-03T08:37:20;11.00;;;6.75;;
24901;SDS011;31328;51.402;0.016;2023-05-03T08:39:47;12.05;;;6.30;;
24901;SDS011;31328;51.402;0.016;2023-05-03T08:42:14;10.77;;;6.93;;
24901;SDS011;31328;51.402;0.016;2023-05-03T08:44:44;12.20;;;6.57;;
24901;SDS011;31328;51.402;0.016;2023-05-03T08:47:15;10.23;;;5.80;;
24901;SDS011;31328;51.402;0.016;2023-05-03T08:49:42;9.18;;;5.60;;
24901;SDS011;31328;51.402;0.016;2023-05-03T08:52:09;9.30;;;5.75;;
24901;SDS011;31328;51.402;0.016;2023-05-03T08:54:38;11.95;;;6.88;;
24901;SDS011;31328;51.402;0.016;2023-05-03T08:57:13;9.82;;;5.68;;
24901;SDS011;31328;51.402;0.016;2023-05-03T08:59:49;13.80;;;5.78;;
24901;SDS011;31328;51.402;0.016;2023-05-03T09:02:19;10.25;;;5.75;;
24901;SDS011;31328;51.402;0.016;2023-05-03T09:04:46;13.80;;;5.82;;
24901;SDS011;31328;51.402;0.016;2023-05-03T09:07:12;11.82;;;5.63;;
24901;SDS011;31328;51.402;0.016;2023-05-03T09:09:41;11.30;;;6.43;;
24901;SDS011;31328;51.402;0.016;2023-05-03T09:12:08;8.38;;;5.22;;
24901;SDS011;31328;51.402;0.016;2023-05-03T09:14:41;8.90;;;5.57;;
24901;SDS011;31328;51.402;0.016;2023-05-03T09:17:12;10.52;;;5.28;;
24901;SDS011;31328;51.402;0.016;2023-05-03T09:19:50;8.18;;;5.07;;
24901;SDS011;31328;51.402;0.016;2023-05-03T09:22:21;9.68;;;5.07;;
24901;SDS011;31328;51.402;0.016;2023-05-03T09:24:56;9.95;;;4.72;;
24901;SDS011;31328;51.402;0.016;2023-05-03T09:27:24;10.13;;;5.63;;
24901;SDS011;31328;51.402;0.016;2023-05-03T09:29:51;10.07;;;5.60;;
24901;SDS011;31328;51.402;0.016;2023-05-03T09:32:19;10.82;;;5.32;;
24901;SDS011;31328;51.402;0.016;2023-05-03T09:34:50;8.27;;;5.22;;
24901;SDS011;31328;51.402;0.016;2023-05-03T09:37:16;9.25;;;4.53;;
24901;SDS011;31328;51.402;0.016;2023-05-03T09:40:03;6.45;;;3.92;;
24901;SDS011;31328;51.402;0.016;2023-05-03T09:42:32;11.18;;;5.00;;
24901;SDS011;31328;51.402;0.016;2023-05-03T09:44:59;9.95;;;4.72;;
24901;SDS011;31328;51.402;0.016;2023-05-03T09:47:26;5.97;;;3.95;;
24901;SDS011;31328;51.402;0.016;2023-05-03T09:49:53;9.00;;;5.45;;
24901;SDS011;31328;51.402;0.016;2023-05-03T09:52:20;10.70;;;4.63;;
24901;SDS011;31328;51.402;0.016;2023-05-03T09:54:47;5.43;;;4.10;;
24901;SDS011;31328;51.402;0.016;2023-05-03T09:57:16;6.85;;;4.00;;
24901;SDS011;31328;51.402;0.016;2023-05-03T09:59:43;5.55;;;3.40;;
24901;SDS011;31328;51.402;0.016;2023-05-03T10:02:10;6.38;;;4.30;;
24901;SDS011;31328;51.402;0.016;2023-05-03T10:04:42;9.05;;;4.07;;
24901;SDS011;31328;51.402;0.016;2023-05-03T10:07:16;6.45;;;4.68;;
24901;SDS011;31328;51.402;0.016;2023-05-03T10:09:44;6.40;;;4.03;;
24901;SDS011;31328;51.402;0.016;2023-05-03T10:12:13;9.65;;;4.60;;
24901;SDS011;31328;51.402;0.016;2023-05-03T10:14:44;11.88;;;5.15;;
24901;SDS011;31328;51.402;0.016;2023-05-03T10:17:15;12.85;;;5.45;;
24901;SDS011;31328;51.402;0.016;2023-05-03T10:19:51;8.90;;;4.47;;
24901;SDS011;31328;51.402;0.016;2023-05-03T10:22:31;5.13;;;4.18;;
24901;SDS011;31328;51.402;0.016;2023-05-03T10:25:18;9.23;;;4.40;;
24901;SDS011;31328;51.402;0.016;2023-05-03T10:35:39;5.68;;;4.07;;
24901;SDS011;31328;51.402;0.016;2023-05-03T10:38:16;7.30;;;4.18;;
24901;SDS011;31328;51.402;0.016;2023-05-03T10:40:50;7.00;;;4.07;;
24901;SDS011;31328;51.402;0.016;2023-05-03T10:45:56;10.70;;;4.55;;
24901;SDS011;31328;51.402;0.016;2023-05-03T10:48:31;7.63;;;4.38;;
24901;SDS011;31328;51.402;0.016;2023-05-03T10:53:58;7.30;;;4.03;;
24901;SDS011;31328;51.402;0.016;2023-05-03T10:56:25;7.95;;;3.95;;
24901;SDS011;31328;51.402;0.016;2023-05-03T10:58:51;8.65;;;4.68;;
24901;SDS011;31328;51.402;0.016;2023-05-03T11:01:21;7.25;;;4.50;;
24901;SDS011;31328;51.402;0.016;2023-05-03T11:09:02;10.43;;;4.70;;
24901;SDS011;31328;51.402;0.016;2023-05-03T11:11:30;7.15;;;4.38;;
24901;SDS011;31328;51.402;0.016;2023-05-03T11:13:57;5.25;;;4.38;;
24901;SDS011;31328;51.402;0.016;2023-05-03T11:16:24;8.60;;;4.70;;
24901;SDS011;31328;51.402;0.016;2023-05-03T11:18:51;7.53;;;4.28;;
24901;SDS011;31328;51.402;0.016;2023-05-03T11:21:21;8.77;;;4.82;;
24901;SDS011;31328;51.402;0.016;2023-05-03T11:23:48;7.13;;;4.88;;
24901;SDS011;31328;51.402;0.016;2023-05-03T11:26:14;9.50;;;5.32;;
24901;SDS011;31328;51.402;0.016;2023-05-03T11:28:41;8.93;;;4.95;;
24901;SDS011;31328;51.402;0.016;2023-05-03T11:31:09;12.43;;;5.03;;
24901;SDS011;31328;51.402;0.016;2023-05-03T11:33:36;9.93;;;4.75;;
24901;SDS011;31328;51.402;0.016;2023-05-03T11:36:04;11.43;;;5.75;;
24901;SDS011;31328;51.402;0.016;2023-05-03T11:38:31;8.10;;;5.03;;
24901;SDS011;31328;51.402;0.016;2023-05-03T11:40:59;10.05;;;5.32;;
24901;SDS011;31328;51.402;0.016;2023-05-03T11:43:26;11.35;;;4.88;;
24901;SDS011;31328;51.402;0.016;2023-05-03T11:45:54;7.13;;;5.25;;
24901;SDS011;31328;51.402;0.016;2023-05-03T11:48:22;8.30;;;4.93;;
24901;SDS011;31328;51.402;0.016;2023-05-03T11:50:52;10.65;;;6.47;;
24901;SDS011;31328;51.402;0.016;2023-05-03T11:53:23;8.65;;;5.55;;
24901;SDS011;31328;51.402;0.016;2023-05-03T11:55:51;9.25;;;5.03;;
24901;SDS011;31328;51.402;0.016;2023-05-03T11:58:22;9.75;;;5.30;;
24901;SDS011;31328;51.402;0.016;2023-05-03T12:00:50;7.90;;;5.05;;
24901;SDS011;31328;51.402;0.016;2023-05-03T12:03:28;12.25;;;5.63;;
24901;SDS011;31328;51.402;0.016;2023-05-03T12:05:58;8.85;;;5.90;;
24901;SDS011;31328;51.402;0.016;2023-05-03T12:08:28;9.43;;;6.07;;
24901;SDS011;31328;51.402;0.016;2023-05-03T12:10:57;9.50;;;5.57;;
24901;SDS011;31328;51.402;0.016;2023-05-03T12:13:31;10.75;;;5.65;;
24901;SDS011;31328;51.402;0.016;2023-05-03T12:16:00;9.55;;;5.05;;
24901;SDS011;31328;51.402;0.016;2023-05-03T12:18:44;11.02;;;6.10;;
24901;SDS011;31328;51.402;0.016;2023-05-03T12:21:19;8.70;;;5.65;;
24901;SDS011;31328;51.402;0.016;2023-05-03T12:23:47;7.57;;;5.45;;
24901;SDS011;31328;51.402;0.016;2023-05-03T12:26:17;9.43;;;5.97;;
24901;SDS011;31328;51.402;0.016;2023-05-03T12:28:45;12.55;;;6.00;;
24901;SDS011;31328;51.402;0.016;2023-05-03T12:31:13;13.05;;;6.68;;
24901;SDS011;31328;51.402;0.016;2023-05-03T12:33:40;12.65;;;5.88;;
24901;SDS011;31328;51.402;0.016;2023-05-03T12:36:07;10.88;;;6.38;;
24901;SDS011;31328;51.402;0.016;2023-05-03T12:38:34;10.05;;;6.28;;
24901;SDS011;31328;51.402;0.016;2023-05-03T12:41:01;11.65;;;6.38;;
24901;SDS011;31328;51.402;0.016;2023-05-03T12:43:27;16.05;;;7.32;;
24901;SDS011;31328;51.402;0.016;2023-05-03T12:45:54;11.82;;;6.07;;
24901;SDS011;31328;51.402;0.016;2023-05-03T12:48:23;14.75;;;6.50;;
24901;SDS011;31328;51.402;0.016;2023-05-03T12:50:50;14.18;;;6.72;;
24901;SDS011;31328;51.402;0.016;2023-05-03T12:53:16;13.75;;;7.38;;
24901;SDS011;31328;51.402;0.016;2023-05-03T12:55:43;11.35;;;6.68;;
24901;SDS011;31328;51.402;0.016;2023-05-03T12:58:10;9.38;;;6.78;;
24901;SDS011;31328;51.402;0.016;2023-05-03T13:00:36;10.30;;;6.03;;
24901;SDS011;31328;51.402;0.016;2023-05-03T13:03:03;11.48;;;5.85;;
24901;SDS011;31328;51.402;0.016;2023-05-03T13:05:30;11.70;;;6.72;;
24901;SDS011;31328;51.402;0.016;2023-05-03T13:07:59;10.57;;;5.90;;
24901;SDS011;31328;51.402;0.016;2023-05-03T13:10:25;11.20;;;6.38;;
24901;SDS011;31328;51.402;0.016;2023-05-03T13:12:54;11.93;;;6.25;;
24901;SDS011;31328;51.402;0.016;2023-05-03T13:15:21;12.18;;;7.88;;
24901;SDS011;31328;51.402;0.016;2023-05-03T13:17:52;11.15;;;6.10;;
24901;SDS011;31328;51.402;0.016;2023-05-03T13:20:19;12.40;;;6.72;;
24901;SDS011;31328;51.402;0.016;2023-05-03T13:22:47;11.20;;;7.07;;
24901;SDS011;31328;51.402;0.016;2023-05-03T13:25:13;10.88;;;6.57;;
24901;SDS011;31328;51.402;0.016;2023-05-03T13:27:40;13.85;;;7.07;;
24901;SDS011;31328;51.402;0.016;2023-05-03T13:30:06;9.93;;;6.35;;
24901;SDS011;31328;51.402;0.016;2023-05-03T13:32:34;12.90;;;5.93;;
24901;SDS011;31328;51.402;0.016;2023-05-03T13:35:01;9.85;;;6.00;;
24901;SDS011;31328;51.402;0.016;2023-05-03T13:37:27;10.45;;;7.03;;
24901;SDS011;31328;51.402;0.016;2023-05-03T13:39:54;10.05;;;5.97;;
24901;SDS011;31328;51.402;0.016;2023-05-03T13:42:21;10.05;;;6.20;;
24901;SDS011;31328;51.402;0.016;2023-05-03T13:44:47;12.35;;;6.70;;
24901;SDS011;31328;51.402;0.016;2023-05-03T13:47:14;11.35;;;6.93;;
24901;SDS011;31328;51.402;0.016;2023-05-03T13:49:40;11.23;;;6.15;;
24901;SDS011;31328;51.402;0.016;2023-05-03T13:52:06;8.50;;;5.88;;
24901;SDS011;31328;51.402;0.016;2023-05-03T13:54:33;12.32;;;6.65;;
24901;SDS011;31328;51.402;0.016;2023-05-03T13:57:00;11.70;;;6.38;;
24901;SDS011;31328;51.402;0.016;2023-05-03T13:59:27;11.10;;;6.25;;
24901;SDS011;31328;51.402;0.016;2023-05-03T14:01:53;13.43;;;6.82;;
24901;SDS011;31328;51.402;0.016;2023-05-03T14:04:20;8.98;;;5.85;;
24901;SDS011;31328;51.402;0.016;2023-05-03T14:06:47;12.07;;;6.70;;
24901;SDS011;31328;51.402;0.016;2023-05-03T14:09:14;11.95;;;6.80;;
24901;SDS011;31328;51.402;0.016;2023-05-03T14:11:40;10.38;;;6.68;;
24901;SDS011;31328;51.402;0.016;2023-05-03T14:14:07;15.00;;;6.60;;
24901;SDS011;31328;51.402;0.016;2023-05-03T14:16:33;13.32;;;7.38;;
24901;SDS011;31328;51.402;0.016;2023-05-03T14:18:59;12.65;;;6.63;;
24901;SDS011;31328;51.402;0.016;2023-05-03T14:21:27;11.65;;;6.00;;
24901;SDS011;31328;51.402;0.016;2023-05-03T14:23:54;12.30;;;6.45;;
24901;SDS011;31328;51.402;0.016;2023-05-03T14:26:20;11.88;;;6.60;;
24901;SDS011;31328;51.402;0.016;2023-05-03T14:28:46;12.05;;;5.95;;
24901;SDS011;31328;51.402;0.016;2023-05-03T14:31:13;10.52;;;5.85;;
24901;SDS011;31328;51.402;0.016;2023-05-03T14:33:39;11.23;;;5.95;;
24901;SDS011;31328;51.402;0.016;2023-05-03T14:36:06;11.07;;;5.20;;
24901;SDS011;31328;51.402;0.016;2023-05-03T14:38:35;12.60;;;5.72;;
24901;SDS011;31328;51.402;0.016;2023-05-03T14:41:02;11.63;;;5.15;;
24901;SDS011;31328;51.402;0.016;2023-05-03T14:43:28;8.88;;;5.05;;
24901;SDS011;31328;51.402;0.016;2023-05-03T14:45:55;9.52;;;4.82;;
24901;SDS011;31328;51.402;0.016;2023-05-03T14:48:22;10.73;;;4.70;;
24901;SDS011;31328;51.402;0.016;2023-05-03T14:50:48;9.70;;;4.75;;
24901;SDS011;31328;51.402;0.016;2023-05-03T14:53:15;7.50;;;4.40;;
24901;SDS011;31328;51.402;0.016;2023-05-03T14:55:42;6.25;;;4.63;;
24901;SDS011;31328;51.402;0.016;2023-05-03T14:58:08;8.50;;;4.57;;
24901;SDS011;31328;51.402;0.016;2023-05-03T15:00:38;9.10;;;5.28;;
24901;SDS011;31328;51.402;0.016;2023-05-03T15:03:06;8.80;;;4.70;;
24901;SDS011;31328;51.402;0.016;2023-05-03T15:05:45;9.27;;;4.63;;
24901;SDS011;31328;51.402;0.016;2023-05-03T15:08:13;7.13;;;4.45;;
24901;SDS011;31328;51.402;0.016;2023-05-03T15:10:41;8.57;;;4.32;;
24901;SDS011;31328;51.402;0.016;2023-05-03T15:13:12;8.82;;;3.88;;
24901;SDS011;31328;51.402;0.016;2023-05-03T15:15:39;7.18;;;3.78;;
24901;SDS011;31328;51.402;0.016;2023-05-03T15:18:08;5.88;;;3.70;;
24901;SDS011;31328;51.402;0.016;2023-05-03T15:20:34;7.45;;;4.15;;